createdAt,value
2018-11-05T00:01:12.101Z,70.80
2018-11-05T00:03:40.784Z,70.70
2018-11-05T00:06:09.080Z,70.70
2018-11-05T00:08:37.364Z,71.10
2018-11-05T00:11:06.728Z,71.40
2018-11-05T00:13:35.057Z,71.00
2018-11-05T00:16:03.505Z,70.90
2018-11-05T00:18:31.825Z,70.70
2018-11-05T00:21:00.187Z,70.60
2018-11-05T00:23:28.558Z,70.60
2018-11-05T00:25:56.934Z,71.00
2018-11-05T00:28:25.218Z,70.80
2018-11-05T00:30:53.576Z,70.80
2018-11-05T00:33:21.850Z,70.90
2018-11-05T00:35:50.160Z,71.10
2018-11-05T00:38:18.500Z,71.00
2018-11-05T00:40:46.784Z,71.10
2018-11-05T00:43:15.165Z,70.90
2018-11-05T00:45:43.577Z,71.10
2018-11-05T00:48:12.916Z,71.20
2018-11-05T00:50:41.238Z,71.10
2018-11-05T00:53:09.493Z,71.40
2018-11-05T00:55:38.043Z,72.20
2018-11-05T00:58:06.613Z,71.40
2018-11-05T01:00:34.961Z,71.40
2018-11-05T01:03:03.205Z,71.50
2018-11-05T01:05:31.494Z,71.00
2018-11-05T01:07:59.756Z,71.40
2018-11-05T01:10:28.059Z,71.50
2018-11-05T01:12:56.330Z,71.40
2018-11-05T01:15:24.619Z,71.40
2018-11-05T01:17:52.874Z,71.50
2018-11-05T01:20:21.164Z,71.70
2018-11-05T01:22:49.459Z,71.70
2018-11-05T01:25:17.857Z,71.60
2018-11-05T01:27:46.195Z,71.60
2018-11-05T01:30:14.490Z,71.60
2018-11-05T01:32:42.729Z,71.70
2018-11-05T01:35:12.312Z,71.80
2018-11-05T01:37:40.695Z,71.80
2018-11-05T01:40:11.223Z,72.40
2018-11-05T01:42:39.533Z,71.50
2018-11-05T01:45:09.373Z,71.60
2018-11-05T01:47:37.811Z,71.70
2018-11-05T01:50:07.430Z,71.80
2018-11-05T01:52:35.720Z,71.70
2018-11-05T01:55:06.013Z,71.70
2018-11-05T01:57:35.474Z,71.40
2018-11-05T02:00:05.221Z,71.50
2018-11-05T02:02:33.543Z,72.30
2018-11-05T02:05:01.880Z,71.60
2018-11-05T02:07:30.204Z,71.90
2018-11-05T02:09:58.648Z,71.70
2018-11-05T02:12:27.016Z,71.40
2018-11-05T02:14:55.423Z,71.60
2018-11-05T02:17:23.734Z,71.60
2018-11-05T02:19:52.172Z,71.50
2018-11-05T02:22:20.468Z,71.40
2018-11-05T02:24:48.740Z,71.50
2018-11-05T02:27:17.087Z,71.90
2018-11-05T02:29:45.295Z,71.60
2018-11-05T02:32:13.580Z,71.80
2018-11-05T02:34:41.843Z,71.50
2018-11-05T02:37:10.138Z,71.90
2018-11-05T02:39:38.393Z,71.70
2018-11-05T02:42:06.694Z,71.70
2018-11-05T02:44:34.985Z,71.80
2018-11-05T02:47:03.371Z,71.60
2018-11-05T02:49:31.709Z,72.00
2018-11-05T02:52:00.025Z,71.80
2018-11-05T02:54:28.375Z,71.70
2018-11-05T02:56:56.657Z,71.60
2018-11-05T02:59:24.925Z,72.50
2018-11-05T03:01:53.199Z,71.90
2018-11-05T03:04:21.487Z,71.70
2018-11-05T03:06:49.771Z,71.60
2018-11-05T03:09:18.139Z,72.80
2018-11-05T03:11:46.425Z,71.80
2018-11-05T03:14:14.675Z,71.70
2018-11-05T03:16:43.013Z,72.00
2018-11-05T03:19:11.332Z,71.60
2018-11-05T03:21:39.599Z,71.60
2018-11-05T03:24:07.894Z,72.10
2018-11-05T03:26:36.201Z,72.40
2018-11-05T03:29:04.540Z,72.20
2018-11-05T03:31:32.863Z,72.20
2018-11-05T03:34:01.193Z,72.10
2018-11-05T03:36:29.529Z,71.90
2018-11-05T03:38:57.880Z,72.30
2018-11-05T03:41:26.302Z,72.50
2018-11-05T03:43:55.721Z,72.50
2018-11-05T03:46:24.060Z,72.30
2018-11-05T03:48:52.429Z,72.10
2018-11-05T03:51:20.801Z,72.40
2018-11-05T03:53:49.187Z,72.30
2018-11-05T03:56:17.735Z,72.50
2018-11-05T03:58:45.928Z,72.70
2018-11-05T04:01:14.217Z,72.80
2018-11-05T04:03:42.568Z,72.60
2018-11-05T04:06:10.921Z,72.50
2018-11-05T04:08:39.249Z,72.60
2018-11-05T04:11:07.599Z,72.50
2018-11-05T04:13:35.884Z,72.10
2018-11-05T04:16:04.388Z,72.40
2018-11-05T04:18:32.620Z,72.40
2018-11-05T04:21:00.948Z,72.50
2018-11-05T04:23:29.853Z,72.40
2018-11-05T04:25:58.160Z,72.40
2018-11-05T04:28:26.566Z,72.70
2018-11-05T04:30:54.983Z,72.80
2018-11-05T04:33:23.333Z,72.90
2018-11-05T04:35:51.726Z,72.70
2018-11-05T04:38:20.077Z,72.70
2018-11-05T04:40:48.470Z,72.90
2018-11-05T04:43:16.889Z,72.80
2018-11-05T04:45:45.231Z,72.70
2018-11-05T04:48:13.622Z,73.00
2018-11-05T04:50:42.016Z,72.90
2018-11-05T04:53:10.391Z,72.70
2018-11-05T04:55:38.728Z,72.70
2018-11-05T04:58:07.130Z,72.70
2018-11-05T05:00:35.485Z,72.50
2018-11-05T05:03:03.925Z,72.80
2018-11-05T05:05:32.266Z,72.80
2018-11-05T05:08:00.623Z,72.70
2018-11-05T05:10:28.906Z,72.80
2018-11-05T05:12:57.290Z,72.70
2018-11-05T05:15:25.681Z,72.80
2018-11-05T05:17:54.067Z,72.70
2018-11-05T05:20:22.460Z,72.80
2018-11-05T05:22:50.962Z,73.00
2018-11-05T05:25:19.210Z,72.90
2018-11-05T05:27:47.606Z,72.90
2018-11-05T05:30:17.221Z,72.90
2018-11-05T05:32:46.517Z,72.90
2018-11-05T05:35:15.153Z,73.00
2018-11-05T05:37:43.558Z,73.00
2018-11-05T05:40:12.937Z,72.80
2018-11-05T05:42:48.279Z,72.60
2018-11-05T05:45:16.701Z,72.60
2018-11-05T05:47:45.800Z,72.40
2018-11-05T05:50:17.946Z,72.50
2018-11-05T05:52:47.546Z,72.90
2018-11-05T05:55:15.928Z,72.80
2018-11-05T05:57:44.725Z,72.70
2018-11-05T06:00:15.251Z,73.70
2018-11-05T06:02:43.635Z,73.70
2018-11-05T06:05:12.909Z,73.80
2018-11-05T06:07:41.738Z,74.00
2018-11-05T06:10:11.520Z,74.20
2018-11-05T06:12:40.000Z,74.20
2018-11-05T06:15:12.289Z,74.10
2018-11-05T06:17:40.626Z,74.10
2018-11-05T06:20:13.833Z,74.20
2018-11-05T06:22:42.847Z,74.20
2018-11-05T06:25:11.210Z,74.20
2018-11-05T06:27:39.598Z,74.00
2018-11-05T06:30:10.361Z,74.20
2018-11-05T06:32:40.089Z,74.10
2018-11-05T06:35:09.488Z,74.10
2018-11-05T06:37:38.060Z,74.00
2018-11-05T06:40:07.613Z,74.20
2018-11-05T06:42:36.002Z,74.20
2018-11-05T06:45:05.023Z,74.30
2018-11-05T06:47:33.310Z,73.90
2018-11-05T06:50:01.660Z,73.70
2018-11-05T06:52:30.037Z,73.70
2018-11-05T06:54:58.424Z,72.50
2018-11-05T06:57:26.928Z,72.70
2018-11-05T06:59:55.200Z,72.80
2018-11-05T07:02:23.642Z,72.70
2018-11-05T07:04:54.994Z,72.60
2018-11-05T07:07:23.525Z,72.70
2018-11-05T07:09:51.913Z,72.00
2018-11-05T07:12:20.221Z,72.30
2018-11-05T07:14:48.522Z,72.10
2018-11-05T07:17:16.893Z,72.40
2018-11-05T07:19:45.316Z,72.20
2018-11-05T07:22:13.657Z,72.30
2018-11-05T07:24:42.037Z,72.00
2018-11-05T07:27:10.422Z,72.00
2018-11-05T07:29:38.803Z,71.70
2018-11-05T07:32:07.165Z,71.90
2018-11-05T07:34:35.609Z,71.60
2018-11-05T07:37:03.951Z,71.50
2018-11-05T07:39:32.332Z,71.60
2018-11-05T07:42:00.696Z,71.50
2018-11-05T07:44:29.084Z,71.30
2018-11-05T07:46:57.455Z,70.70
2018-11-05T07:49:25.877Z,70.40
2018-11-05T07:51:54.243Z,70.40
2018-11-05T07:54:22.592Z,70.20
2018-11-05T07:56:51.037Z,70.10
2018-11-05T07:59:19.340Z,69.90
2018-11-05T08:01:47.716Z,69.80
2018-11-05T08:04:16.114Z,69.80
2018-11-05T08:06:45.505Z,70.00
2018-11-05T08:09:13.941Z,70.50
2018-11-05T08:14:26.860Z,70.50
2018-11-05T08:16:55.169Z,70.20
2018-11-05T08:19:23.554Z,70.10
2018-11-05T08:21:51.898Z,70.00
2018-11-05T08:24:20.263Z,69.80
2018-11-05T08:26:48.616Z,69.40
2018-11-05T08:29:17.032Z,69.60
2018-11-05T08:31:45.351Z,69.70
2018-11-05T08:34:14.245Z,69.10
2018-11-05T08:36:42.656Z,68.80
2018-11-05T08:39:12.074Z,68.70
2018-11-05T08:41:40.860Z,69.10
2018-11-05T08:44:11.173Z,69.20
2018-11-05T08:46:40.433Z,68.80
2018-11-05T08:49:09.662Z,68.80
2018-11-05T08:51:38.358Z,68.90
2018-11-05T08:54:06.501Z,68.80
2018-11-05T08:59:09.525Z,68.70
2018-11-05T09:01:39.157Z,68.60
2018-11-05T09:04:07.523Z,68.70
2018-11-05T09:06:35.892Z,68.30
2018-11-05T09:09:06.092Z,68.00
2018-11-05T09:11:34.751Z,68.20
2018-11-05T09:14:02.979Z,68.50
2018-11-05T09:16:31.375Z,68.10
2018-11-05T09:18:59.716Z,68.00
2018-11-05T09:21:28.119Z,67.80
2018-11-05T09:23:56.525Z,67.70
2018-11-05T09:26:24.889Z,67.50
2018-11-05T09:28:53.238Z,67.50
2018-11-05T09:31:21.658Z,67.70
2018-11-05T09:33:50.068Z,67.50
2018-11-05T09:36:18.392Z,67.10
2018-11-05T09:38:46.778Z,67.10
2018-11-05T09:41:15.141Z,66.40
2018-11-05T09:43:43.501Z,66.50
2018-11-05T09:46:11.930Z,66.20
2018-11-05T09:48:40.527Z,66.30
2018-11-05T09:51:08.849Z,66.60
2018-11-05T09:53:37.212Z,66.70
2018-11-05T09:56:05.619Z,66.50
2018-11-05T09:58:34.030Z,65.70
2018-11-05T10:01:02.483Z,66.00
2018-11-05T10:03:31.247Z,66.00
2018-11-05T10:05:59.305Z,65.70
2018-11-05T10:08:27.736Z,65.90
2018-11-05T10:10:56.225Z,65.70
2018-11-05T10:13:24.672Z,65.40
2018-11-05T10:15:53.090Z,65.70
2018-11-05T10:18:21.614Z,65.40
2018-11-05T10:20:49.956Z,65.70
2018-11-05T10:23:18.434Z,66.30
2018-11-05T10:25:46.809Z,64.50
2018-11-05T10:28:16.263Z,64.60
2018-11-05T10:30:44.606Z,64.90
2018-11-05T10:33:13.085Z,64.50
2018-11-05T10:35:57.457Z,64.70
2018-11-05T10:38:26.357Z,64.40
2018-11-05T10:40:59.142Z,64.20
2018-11-05T10:43:27.516Z,64.20
2018-11-05T10:45:56.948Z,63.90
2018-11-05T10:48:25.372Z,63.90
2018-11-05T10:50:53.835Z,63.70
2018-11-05T10:53:22.239Z,63.80
2018-11-05T10:55:50.629Z,63.30
2018-11-05T10:58:19.044Z,63.20
2018-11-05T11:00:52.863Z,61.90
2018-11-05T11:03:21.265Z,61.60
2018-11-05T11:05:49.722Z,62.10
2018-11-05T11:08:18.122Z,61.80
2018-11-05T11:10:46.832Z,61.40
2018-11-05T11:13:15.215Z,60.60
2018-11-05T11:15:43.552Z,60.50
2018-11-05T11:18:12.211Z,60.50
2018-11-05T11:20:40.505Z,60.50
2018-11-05T11:23:12.374Z,60.40
2018-11-05T11:29:09.780Z,59.10
2018-11-05T11:31:38.508Z,58.30
2018-11-05T11:34:07.002Z,58.60
2018-11-05T11:36:35.487Z,58.20
2018-11-05T11:39:04.800Z,58.80
2018-11-05T11:41:33.379Z,58.70
2018-11-05T11:44:08.084Z,58.80
2018-11-05T11:46:37.184Z,58.30
2018-11-05T11:49:06.031Z,58.50
2018-11-05T11:51:34.425Z,58.20
2018-11-05T11:54:02.877Z,58.30
2018-11-05T11:56:31.299Z,58.50
2018-11-05T11:58:59.741Z,58.00
2018-11-05T12:01:28.882Z,57.80
2018-11-05T12:03:57.253Z,57.40
2018-11-05T12:06:25.692Z,57.50
2018-11-05T12:08:54.099Z,57.50
2018-11-05T12:11:22.463Z,57.50
2018-11-05T12:13:50.873Z,57.40
2018-11-05T12:16:19.235Z,57.10
2018-11-05T12:18:47.612Z,55.80
2018-11-05T12:21:15.981Z,55.70
2018-11-05T12:23:44.442Z,54.90
2018-11-05T12:26:12.877Z,55.30
2018-11-05T12:28:41.227Z,54.40
2018-11-05T12:31:09.626Z,54.00
2018-11-05T12:33:38.035Z,54.60
2018-11-05T12:36:06.611Z,53.00
2018-11-05T12:38:37.971Z,53.90
2018-11-05T12:41:06.313Z,53.90
2018-11-05T12:43:34.670Z,52.50
2018-11-05T12:46:03.057Z,52.80
2018-11-05T12:48:31.473Z,51.90
2018-11-05T12:50:59.802Z,52.30
2018-11-05T12:53:28.157Z,52.50
2018-11-05T12:55:56.593Z,52.70
2018-11-05T12:58:24.982Z,52.90
2018-11-05T13:00:53.729Z,52.30
2018-11-05T13:03:22.013Z,51.40
2018-11-05T13:05:50.361Z,51.50
2018-11-05T13:08:19.012Z,52.10
2018-11-05T13:10:47.317Z,51.80
2018-11-05T13:13:15.669Z,51.20
2018-11-05T13:15:44.108Z,50.60
2018-11-05T13:18:12.503Z,50.80
2018-11-05T13:20:41.880Z,50.50
2018-11-05T13:23:10.268Z,51.10
2018-11-05T13:25:38.604Z,51.30
2018-11-05T13:28:07.059Z,51.30
2018-11-05T13:30:35.360Z,51.40
2018-11-05T13:33:03.777Z,51.10
2018-11-05T13:35:32.132Z,51.00
2018-11-05T13:38:01.084Z,50.00
2018-11-05T13:40:29.949Z,50.30
2018-11-05T13:42:58.374Z,50.90
2018-11-05T13:45:27.015Z,50.10
2018-11-05T13:47:55.935Z,50.40
2018-11-05T13:50:23.682Z,50.10
2018-11-05T13:52:51.850Z,49.70
2018-11-05T13:55:20.194Z,49.90
2018-11-05T13:57:49.033Z,50.10
2018-11-05T14:00:19.650Z,50.10
2018-11-05T14:02:48.129Z,50.10
2018-11-05T14:05:16.521Z,50.40
2018-11-05T14:07:44.964Z,49.00
2018-11-05T14:10:20.548Z,49.10
2018-11-05T14:12:49.118Z,48.30
2018-11-05T14:15:17.477Z,49.00
2018-11-05T14:17:46.053Z,49.20
2018-11-05T14:20:15.367Z,48.50
2018-11-05T14:22:43.974Z,47.80
2018-11-05T14:25:13.475Z,48.60
2018-11-05T14:27:42.857Z,48.60
2018-11-05T14:30:12.125Z,48.60
2018-11-05T14:32:41.540Z,48.50
2018-11-05T14:35:10.042Z,48.70
2018-11-05T14:37:38.411Z,48.50
2018-11-05T14:40:08.151Z,48.80
2018-11-05T14:42:36.919Z,49.10
2018-11-05T14:45:07.282Z,48.60
2018-11-05T14:47:35.582Z,49.20
2018-11-05T14:50:04.664Z,49.30
2018-11-05T14:52:33.105Z,49.50
2018-11-05T14:55:01.464Z,49.60
2018-11-05T14:57:30.914Z,49.70
2018-11-05T14:59:59.236Z,50.30
2018-11-05T15:02:32.800Z,50.00
2018-11-05T15:05:01.092Z,49.80
2018-11-05T15:07:29.529Z,50.20
2018-11-05T15:09:57.863Z,50.40
2018-11-05T15:12:26.272Z,49.90
2018-11-05T15:14:54.764Z,50.50
2018-11-05T15:17:24.832Z,50.40
2018-11-05T15:19:54.822Z,50.40
2018-11-05T15:22:22.817Z,50.50
2018-11-05T15:24:51.314Z,50.80
2018-11-05T15:27:19.574Z,50.90
2018-11-05T15:29:49.030Z,51.40
2018-11-05T15:32:17.461Z,51.30
2018-11-05T15:34:45.797Z,51.50
2018-11-05T15:37:14.238Z,51.80
2018-11-05T15:39:42.580Z,51.80
2018-11-05T15:42:12.282Z,52.10
2018-11-05T15:44:44.702Z,52.20
2018-11-05T15:47:13.128Z,52.40
2018-11-05T15:49:42.484Z,52.60
2018-11-05T15:52:11.065Z,52.70
2018-11-05T15:54:39.374Z,52.80
2018-11-05T15:57:08.158Z,52.90
2018-11-05T15:59:36.752Z,53.00
2018-11-05T16:02:09.825Z,53.30
2018-11-05T16:04:39.646Z,53.50
2018-11-05T16:07:08.474Z,53.50
2018-11-05T16:09:37.339Z,53.60
2018-11-05T16:12:05.661Z,53.90
2018-11-05T16:14:33.945Z,54.10
2018-11-05T16:17:02.975Z,54.40
2018-11-05T16:19:31.524Z,54.60
2018-11-05T16:22:00.029Z,54.80
2018-11-05T16:24:28.687Z,55.00
2018-11-05T16:26:57.740Z,55.00
2018-11-05T16:29:26.261Z,55.10
2018-11-05T16:31:54.595Z,55.20
2018-11-05T16:34:26.256Z,55.20
2018-11-05T16:36:54.623Z,55.20
2018-11-05T16:39:23.054Z,55.50
2018-11-05T16:41:51.543Z,55.80
2018-11-05T16:44:19.884Z,56.10
2018-11-05T16:46:48.301Z,56.30
2018-11-05T16:49:16.716Z,56.50
2018-11-05T16:51:45.088Z,56.40
2018-11-05T16:54:13.814Z,56.30
2018-11-05T16:56:42.433Z,56.50
2018-11-05T16:59:10.998Z,56.60
2018-11-05T17:01:40.776Z,56.90
2018-11-05T17:04:08.837Z,56.80
2018-11-05T17:06:37.374Z,57.30
2018-11-05T17:09:08.654Z,57.40
2018-11-05T17:11:37.063Z,57.50
2018-11-05T17:14:05.654Z,57.60
2018-11-05T17:16:34.057Z,57.80
2018-11-05T17:19:02.526Z,58.10
2018-11-05T17:21:30.911Z,58.10
2018-11-05T17:23:59.337Z,58.00
2018-11-05T17:26:27.992Z,58.10
2018-11-05T17:28:56.509Z,58.40
2018-11-05T17:31:25.001Z,58.60
2018-11-05T17:33:53.413Z,58.80
2018-11-05T17:36:21.827Z,59.00
2018-11-05T17:38:50.339Z,59.00
2018-11-05T17:41:18.701Z,59.10
2018-11-05T17:43:47.196Z,59.10
2018-11-05T17:46:15.614Z,59.30
2018-11-05T17:48:43.938Z,59.10
2018-11-05T17:51:12.403Z,59.50
2018-11-05T17:53:40.785Z,60.20
2018-11-05T17:56:09.185Z,60.20
2018-11-05T17:58:37.549Z,59.70
2018-11-05T18:01:05.936Z,59.80
2018-11-05T18:03:34.285Z,59.70
2018-11-05T18:06:02.766Z,59.90
2018-11-05T18:08:31.096Z,59.80
2018-11-05T18:11:00.079Z,59.80
2018-11-05T18:13:28.483Z,59.90
2018-11-05T18:15:56.902Z,60.60
2018-11-05T18:18:25.275Z,61.00
2018-11-05T18:20:53.631Z,61.20
2018-11-05T18:23:21.993Z,61.20
2018-11-05T18:25:50.453Z,61.30
2018-11-05T18:28:18.871Z,61.50
2018-11-05T18:30:47.263Z,61.70
2018-11-05T18:33:15.721Z,61.90
2018-11-05T18:35:44.187Z,62.00
2018-11-05T18:38:12.660Z,62.10
2018-11-05T18:40:40.997Z,61.80
2018-11-05T18:43:09.453Z,62.50
2018-11-05T18:45:37.973Z,61.90
2018-11-05T18:48:06.248Z,61.90
2018-11-05T18:50:34.580Z,61.90
2018-11-05T18:53:02.985Z,61.90
2018-11-05T18:55:31.327Z,61.60
2018-11-05T18:57:59.705Z,61.60
2018-11-05T19:00:28.484Z,61.70
2018-11-05T19:02:58.815Z,62.10
2018-11-05T19:05:28.370Z,62.40
2018-11-05T19:07:56.683Z,62.10
2018-11-05T19:10:25.314Z,62.50
2018-11-05T19:12:54.062Z,62.70
2018-11-05T19:15:22.409Z,62.80
2018-11-05T19:17:51.166Z,63.20
2018-11-05T19:20:19.801Z,63.60
2018-11-05T19:22:48.311Z,63.20
2018-11-05T19:25:19.529Z,63.10
2018-11-05T19:27:50.264Z,63.10
2018-11-05T19:30:20.883Z,63.20
2018-11-05T19:32:49.194Z,63.10
2018-11-05T19:35:18.614Z,63.10
2018-11-05T19:37:46.933Z,64.00
2018-11-05T19:40:15.986Z,63.30
2018-11-05T19:42:45.276Z,63.20
2018-11-05T19:45:15.621Z,63.20
2018-11-05T19:47:43.967Z,63.40
2018-11-05T19:50:14.581Z,63.50
2018-11-05T19:52:44.020Z,63.60
2018-11-05T19:55:13.510Z,63.60
2018-11-05T19:57:42.733Z,63.50
2018-11-05T20:00:15.689Z,63.50
2018-11-05T20:02:44.459Z,63.70
2018-11-05T20:05:13.252Z,63.70
2018-11-05T20:07:41.626Z,63.70
2018-11-05T20:10:10.745Z,63.70
2018-11-05T20:12:39.122Z,63.80
2018-11-05T20:15:08.477Z,63.60
2018-11-05T20:17:38.106Z,63.80
2018-11-05T20:20:08.139Z,63.90
2018-11-05T20:25:19.878Z,64.30
2018-11-05T20:27:48.305Z,64.10
2018-11-05T20:30:18.592Z,64.20
2018-11-05T20:32:48.458Z,64.40
2018-11-05T20:35:16.420Z,64.40
2018-11-05T20:37:44.896Z,64.40
2018-11-05T20:40:14.600Z,64.60
2018-11-05T20:42:44.150Z,64.40
2018-11-05T20:45:12.769Z,64.50
2018-11-05T20:47:41.522Z,64.50
2018-11-05T20:50:10.625Z,64.80
2018-11-05T20:52:39.410Z,64.70
2018-11-05T20:55:08.830Z,64.80
2018-11-05T20:57:38.510Z,64.90
2018-11-05T21:00:08.572Z,65.00
2018-11-05T21:02:36.991Z,65.80
2018-11-05T21:05:05.407Z,65.30
2018-11-05T21:07:33.793Z,65.10
2018-11-05T21:10:02.586Z,64.90
2018-11-05T21:12:30.976Z,64.80
2018-11-05T21:14:59.363Z,64.60
2018-11-05T21:17:34.371Z,64.90
2018-11-05T21:20:02.773Z,65.00
2018-11-05T21:22:31.248Z,65.10
2018-11-05T21:24:59.494Z,65.50
2018-11-05T21:27:27.946Z,65.40
2018-11-05T21:29:56.339Z,65.40
2018-11-05T21:32:24.771Z,65.40
2018-11-05T21:34:53.153Z,65.10
2018-11-05T21:37:21.449Z,65.00
2018-11-05T21:39:49.737Z,65.10
2018-11-05T21:42:17.988Z,64.90
2018-11-05T21:44:46.277Z,65.00
2018-11-05T21:47:14.724Z,64.80
2018-11-05T21:49:43.053Z,64.90
2018-11-05T21:52:11.469Z,64.80
2018-11-05T21:54:39.812Z,65.00
2018-11-05T21:57:08.168Z,65.10
2018-11-05T21:59:36.478Z,64.90
2018-11-05T22:02:04.899Z,65.00
2018-11-05T22:04:33.246Z,65.00
2018-11-05T22:07:01.606Z,65.00
2018-11-05T22:09:29.978Z,65.20
2018-11-05T22:11:58.345Z,65.20
2018-11-05T22:14:26.671Z,65.20
2018-11-05T22:16:55.013Z,65.20
2018-11-05T22:19:23.389Z,65.10
2018-11-05T22:21:51.774Z,65.20
2018-11-05T22:24:20.157Z,65.30
2018-11-05T22:26:48.537Z,65.40
2018-11-05T22:29:18.206Z,65.60
2018-11-05T22:31:46.519Z,65.70
2018-11-05T22:34:14.954Z,65.50
2018-11-05T22:36:43.298Z,65.50
2018-11-05T22:39:11.648Z,65.30
2018-11-05T22:41:39.928Z,65.20
2018-11-05T22:44:08.984Z,65.30
2018-11-05T22:46:37.519Z,65.30
2018-11-05T22:49:06.108Z,66.30
2018-11-05T22:51:34.568Z,66.40
2018-11-05T22:54:02.843Z,66.50
2018-11-05T22:56:31.264Z,66.90
2018-11-05T22:58:59.605Z,67.20
2018-11-05T23:01:33.254Z,67.10
2018-11-05T23:04:03.261Z,66.70
2018-11-05T23:06:32.195Z,66.40
2018-11-05T23:09:00.558Z,66.30
2018-11-05T23:11:28.900Z,66.20
2018-11-05T23:13:57.240Z,66.60
2018-11-05T23:16:25.520Z,66.60
2018-11-05T23:18:53.795Z,66.40
2018-11-05T23:21:22.073Z,66.30
2018-11-05T23:23:50.376Z,66.20
2018-11-05T23:26:18.886Z,66.20
2018-11-05T23:28:47.211Z,66.10
2018-11-05T23:31:15.649Z,65.80
2018-11-05T23:33:44.237Z,66.20
2018-11-05T23:36:13.661Z,65.90
2018-11-05T23:38:41.987Z,65.80
2018-11-05T23:41:10.593Z,65.70
2018-11-05T23:43:38.986Z,65.90
2018-11-05T23:46:07.513Z,66.00
2018-11-05T23:48:35.956Z,66.30
2018-11-05T23:51:04.759Z,66.40
2018-11-05T23:53:34.442Z,66.60
2018-11-05T23:56:02.881Z,66.70
2018-11-05T23:58:31.279Z,66.50
